Kerch, Ukraine
Current Conditions -  °F | °C
As of 1:30 PM on Monday 26 Jan 2015 (Local Time) from URKA Reporting Station
Broken Clouds Broken Clouds  
Wind Chill: 55°   Ceiling: 12000
Heat Index: 55°   Visibility: 6mi
Dew Point: 43°   Wind: 9mph
Humidity: 63%   Direction: 80°E
Pressure: 30.03"   Gusts: 16mph
Location:  45.36°N, 36.48°E
Report Text: URKA 261030Z 08004G07MPS 9999 SCT026 BKN120 13/06 Q1017 NOSIGRMK QFE759/1012 SC070
Loading
Personal Weather Stations






























Interactive Weather Map New forecast layout! Learn more

10-Day Weather Forecast

Advertisements
Track Severe Weather on mobile